Time;durP1;ratioP1;P1;durP2;ratioP2;P2;SDS_P1;SDS_P2;PMS_P1;PMS_P2;Temp;Humidity;BMP_temperature;BMP_pressure;BME280_temperature;BME280_humidity;BME280_pressure;Samples;Min_cycle;Max_cycle;Signal;HPM_P1;HPM_P2
2021/07/01 00:00:26;;;;;;;47.45;16.10;;;13.80;99.90;;;;;;4999040;28;20446;-70
2021/07/01 00:02:52;;;;;;;44.65;18.08;;;13.80;99.90;;;;;;4994158;28;20108;-70
2021/07/01 00:05:18;;;;;;;46.75;15.45;;;13.80;99.90;;;;;;4993720;28;20438;-70
2021/07/01 00:07:46;;;;;;;48.92;16.77;;;13.80;99.90;;;;;;4997875;28;20062;-69
2021/07/01 00:10:13;;;;;;;;;;;13.80;99.90;;;;;;4991357;28;20117;-70
2021/07/01 00:12:39;;;;;;;43.20;16.15;;;13.80;99.90;;;;;;4990762;28;19921;-70
2021/07/01 00:15:07;;;;;;;43.42;16.90;;;13.80;99.90;;;;;;5002078;28;20078;-69
2021/07/01 00:17:34;;;;;;;51.38;19.00;;;13.80;99.90;;;;;;4989275;28;20038;-69
2021/07/01 00:20:00;;;;;;;47.90;17.77;;;13.80;99.90;;;;;;5003852;28;20047;-69
2021/07/01 00:22:26;;;;;;;62.90;18.00;;;13.70;99.90;;;;;;4986885;28;20058;-68
2021/07/01 00:24:51;;;;;;;50.88;18.65;;;13.70;99.90;;;;;;4996349;28;20053;-68
2021/07/01 00:27:17;;;;;;;44.13;18.30;;;13.70;99.90;;;;;;5000513;28;20056;-67
2021/07/01 00:29:43;;;;;;;49.50;19.65;;;13.70;99.90;;;;;;4999552;28;20106;-66
2021/07/01 00:32:09;;;;;;;46.72;20.52;;;13.70;99.90;;;;;;4989237;28;20054;-67
2021/07/01 00:34:35;;;;;;;46.55;19.23;;;13.70;99.90;;;;;;4998061;28;20046;-66
2021/07/01 00:37:01;;;;;;;61.67;21.60;;;13.70;99.90;;;;;;5002609;28;20054;-66
2021/07/01 00:39:26;;;;;;;54.92;20.10;;;13.70;99.90;;;;;;4997804;28;20042;-67
2021/07/01 00:41:52;;;;;;;47.10;17.95;;;13.60;99.90;;;;;;5004486;28;20077;-67
2021/07/01 00:44:18;;;;;;;63.35;19.52;;;13.60;99.90;;;;;;5000356;28;20057;-66
2021/07/01 00:46:44;;;;;;;42.75;17.73;;;13.60;99.90;;;;;;5003771;28;20046;-66
2021/07/01 00:49:10;;;;;;;38.20;17.35;;;13.50;99.90;;;;;;4999741;28;20050;-67
2021/07/01 00:51:36;;;;;;;33.72;17.30;;;13.50;99.90;;;;;;5003841;28;20050;-67
2021/07/01 00:54:02;;;;;;;36.78;18.58;;;13.40;99.90;;;;;;4999232;28;20134;-67
2021/07/01 00:56:28;;;;;;;46.53;17.65;;;13.40;99.90;;;;;;4994828;28;20081;-67
2021/07/01 00:58:55;;;;;;;35.72;17.75;;;13.40;99.90;;;;;;4998269;28;20043;-68
2021/07/01 01:01:22;;;;;;;39.10;16.63;;;13.40;99.90;;;;;;4998494;28;20062;-66
2021/07/01 01:03:49;;;;;;;42.88;17.50;;;13.30;99.90;;;;;;4994466;28;20510;-67
2021/07/01 01:06:15;;;;;;;52.45;19.10;;;13.30;99.90;;;;;;5001709;28;20042;-67
2021/07/01 01:08:41;;;;;;;40.42;19.23;;;13.40;99.90;;;;;;4991624;28;20125;-67
2021/07/01 01:11:07;;;;;;;37.50;18.42;;;13.40;99.90;;;;;;4989023;28;20065;-67
2021/07/01 01:13:33;;;;;;;45.95;19.35;;;13.50;99.90;;;;;;4995744;28;20137;-67
2021/07/01 01:16:01;;;;;;;38.85;18.73;;;13.50;99.90;;;;;;4989314;28;20069;-66
2021/07/01 01:18:28;;;;;;;42.95;19.45;;;13.50;99.90;;;;;;4987809;28;20053;-67
2021/07/01 01:20:56;;;;;;;40.30;19.35;;;13.50;99.90;;;;;;5003188;28;20070;-67
2021/07/01 01:23:23;;;;;;;38.50;18.73;;;13.50;99.90;;;;;;4991057;28;20039;-67
2021/07/01 01:25:50;;;;;;;50.55;21.50;;;13.50;99.90;;;;;;4992653;28;20049;-67
2021/07/01 01:28:17;;;;;;;40.58;20.10;;;13.50;99.90;;;;;;4989005;28;20077;-66
2021/07/01 01:30:44;;;;;;;41.00;19.88;;;13.60;99.90;;;;;;4997390;28;20042;-67
2021/07/01 01:33:11;;;;;;;47.42;20.15;;;13.60;99.90;;;;;;4997459;28;20062;-67
2021/07/01 01:35:38;;;;;;;42.35;21.10;;;13.60;99.90;;;;;;4996083;28;20438;-67
2021/07/01 01:38:09;;;;;;;47.67;20.65;;;13.60;99.90;;;;;;5002476;28;20050;-67
2021/07/01 01:40:36;;;;;;;49.33;20.95;;;13.60;99.90;;;;;;4994510;28;20051;-67
2021/07/01 01:43:01;;;;;;;51.88;19.92;;;13.60;99.90;;;;;;4988137;28;20474;-67
2021/07/01 01:45:27;;;;;;;46.20;20.17;;;13.60;99.90;;;;;;4993826;28;20035;-67
2021/07/01 01:47:53;;;;;;;50.70;21.23;;;13.70;99.90;;;;;;4988335;28;20043;-67
2021/07/01 01:50:20;;;;;;;45.53;20.83;;;13.70;99.90;;;;;;4996660;28;20089;-67
2021/07/01 01:52:49;;;;;;;48.35;21.02;;;13.70;99.90;;;;;;4987797;28;20050;-67
2021/07/01 01:55:15;;;;;;;54.85;22.30;;;13.70;99.90;;;;;;4995072;28;20050;-67
2021/07/01 01:57:43;;;;;;;45.63;21.10;;;13.80;99.90;;;;;;4988456;28;20452;-67
2021/07/01 02:00:12;;;;;;;56.20;23.33;;;13.80;99.90;;;;;;4989464;28;20056;-67
2021/07/01 02:02:38;;;;;;;63.38;23.45;;;13.90;99.90;;;;;;4992205;28;20046;-67
2021/07/01 02:05:06;;;;;;;69.10;25.65;;;13.90;99.90;;;;;;4994518;28;20058;-66
2021/07/01 02:07:33;;;;;;;71.63;25.63;;;13.90;99.90;;;;;;4987472;28;20522;-67
2021/07/01 02:09:59;;;;;;;66.70;24.63;;;13.90;99.90;;;;;;4994666;28;20038;-66
2021/07/01 02:12:25;;;;;;;61.50;26.67;;;13.90;99.90;;;;;;4998827;28;20082;-66
2021/07/01 02:14:51;;;;;;;64.47;26.60;;;13.90;99.90;;;;;;4991162;28;20069;-67
2021/07/01 02:17:17;;;;;;;65.78;24.67;;;14.00;99.90;;;;;;4993927;28;20061;-67
2021/07/01 02:19:43;;;;;;;63.45;25.40;;;14.00;99.90;;;;;;4989399;28;20042;-67
2021/07/01 02:22:09;;;;;;;62.50;25.52;;;14.00;99.90;;;;;;4995049;28;20062;-67
2021/07/01 02:24:34;;;;;;;71.05;27.13;;;14.00;99.90;;;;;;4988487;28;20038;-67
2021/07/01 02:27:11;;;;;;;65.65;25.88;;;14.10;99.90;;;;;;4994314;28;20047;-67
2021/07/01 02:29:37;;;;;;;68.03;27.77;;;14.00;99.90;;;;;;5002258;28;20506;-67
2021/07/01 02:32:04;;;;;;;68.77;28.43;;;14.10;99.90;;;;;;4997550;28;20038;-67
2021/07/01 02:34:30;;;;;;;83.43;30.30;;;14.10;99.90;;;;;;4993956;28;20157;-67
2021/07/01 02:36:56;;;;;;;80.82;30.85;;;14.10;99.90;;;;;;4997081;28;20606;-68
2021/07/01 02:39:22;;;;;;;76.13;28.27;;;14.10;99.90;;;;;;5003807;28;20050;-68
2021/07/01 02:41:49;;;;;;;75.35;27.73;;;14.10;99.90;;;;;;4988086;28;20035;-68
2021/07/01 02:44:15;;;;;;;63.22;26.45;;;14.10;99.90;;;;;;5006661;28;20050;-68
2021/07/01 02:46:41;;;;;;;69.13;26.65;;;14.00;99.90;;;;;;4999367;28;20053;-68
2021/07/01 02:49:06;;;;;;;59.10;25.55;;;14.10;99.90;;;;;;5000172;28;20050;-69
2021/07/01 02:51:32;;;;;;;67.38;27.52;;;14.00;99.90;;;;;;4993524;28;20046;-69
2021/07/01 02:53:58;;;;;;;69.88;28.88;;;14.00;99.90;;;;;;4994539;28;20099;-68
2021/07/01 02:56:24;;;;;;;85.68;29.27;;;14.10;99.90;;;;;;4997624;28;20053;-67
2021/07/01 02:58:49;;;;;;;84.90;28.05;;;14.10;99.90;;;;;;5003143;28;20042;-68
2021/07/01 03:01:16;;;;;;;74.55;27.60;;;14.10;99.90;;;;;;4999791;28;20069;-67
2021/07/01 03:03:43;;;;;;;81.28;29.95;;;14.10;99.90;;;;;;5005021;28;20105;-66
2021/07/01 03:06:09;;;;;;;75.43;28.40;;;14.10;99.90;;;;;;4996065;28;20043;-66
2021/07/01 03:08:35;;;;;;;89.50;28.90;;;14.10;99.90;;;;;;4996272;28;20077;-66
2021/07/01 03:11:00;;;;;;;82.22;28.65;;;14.10;99.90;;;;;;4987811;28;20046;-66
2021/07/01 03:13:26;;;;;;;79.18;28.90;;;14.10;99.90;;;;;;5000723;28;20053;-66
2021/07/01 03:15:52;;;;;;;78.40;30.02;;;14.10;99.90;;;;;;4996052;28;20058;-66
2021/07/01 03:18:17;;;;;;;74.70;29.33;;;14.10;99.90;;;;;;5002909;28;20050;-66
2021/07/01 03:20:43;;;;;;;79.18;29.90;;;14.10;99.90;;;;;;5001220;28;20050;-66
2021/07/01 03:23:09;;;;;;;103.25;31.27;;;14.10;99.90;;;;;;4992056;28;20038;-67
2021/07/01 03:25:35;;;;;;;82.38;30.60;;;14.10;99.90;;;;;;4996510;28;20542;-65
2021/07/01 03:28:01;;;;;;;114.35;33.80;;;14.10;99.90;;;;;;5002835;28;20047;-66
2021/07/01 03:30:27;;;;;;;78.90;30.60;;;14.10;99.90;;;;;;4995481;28;20050;-66
2021/07/01 03:32:53;;;;;;;90.32;30.45;;;14.10;99.90;;;;;;5001396;28;20079;-67
2021/07/01 03:35:19;;;;;;;69.35;27.33;;;14.10;99.90;;;;;;5005392;28;20054;-67
2021/07/01 03:37:45;;;;;;;81.65;28.90;;;14.10;99.90;;;;;;5005484;28;20101;-66
2021/07/01 03:40:11;;;;;;;74.05;28.02;;;14.10;99.90;;;;;;5003407;28;20050;-66
2021/07/01 03:42:37;;;;;;;86.70;31.27;;;14.10;99.90;;;;;;5005314;28;20181;-67
2021/07/01 03:45:04;;;;;;;74.22;28.25;;;14.10;99.90;;;;;;5000308;28;20344;-67
2021/07/01 03:47:30;;;;;;;79.88;26.10;;;14.10;99.90;;;;;;5003425;28;20104;-67
2021/07/01 03:49:56;;;;;;;64.95;26.08;;;14.10;99.90;;;;;;5018954;28;20483;-67
2021/07/01 03:52:22;;;;;;;60.13;23.67;;;14.10;99.90;;;;;;5004885;28;20058;-67
2021/07/01 03:54:48;;;;;;;65.90;25.52;;;14.10;99.90;;;;;;5004774;28;20049;-67
2021/07/01 03:57:14;;;;;;;71.43;27.45;;;14.10;99.90;;;;;;5004999;28;20445;-68
2021/07/01 03:59:39;;;;;;;65.60;26.13;;;14.10;99.90;;;;;;5000652;28;20043;-68
2021/07/01 04:02:05;;;;;;;68.28;28.15;;;14.10;99.90;;;;;;5004797;28;20473;-68
2021/07/01 04:04:31;;;;;;;61.58;26.38;;;14.10;99.90;;;;;;5004512;28;20065;-67
2021/07/01 04:06:57;;;;;;;81.68;29.15;;;14.10;99.90;;;;;;5005033;28;20057;-68
2021/07/01 04:09:23;;;;;;;70.20;27.63;;;14.10;99.90;;;;;;5004025;28;20061;-67
2021/07/01 04:11:49;;;;;;;75.65;29.52;;;14.10;99.90;;;;;;5005318;28;20038;-68
2021/07/01 04:14:17;;;;;;;67.93;26.05;;;14.10;99.90;;;;;;4994356;28;20042;-68
2021/07/01 04:16:45;;;;;;;74.18;28.73;;;14.10;99.90;;;;;;5002239;28;20069;-67
2021/07/01 04:19:12;;;;;;;58.70;26.38;;;14.10;99.90;;;;;;5003762;28;20049;-67
2021/07/01 04:21:38;;;;;;;66.85;26.60;;;14.10;99.90;;;;;;4993761;28;20053;-68
2021/07/01 04:24:05;;;;;;;70.53;26.83;;;14.20;99.90;;;;;;5003700;28;20050;-68
2021/07/01 04:26:31;;;;;;;63.70;24.65;;;14.20;99.90;;;;;;5004775;28;20097;-67
2021/07/01 04:28:57;;;;;;;58.03;24.90;;;14.10;99.90;;;;;;5004324;28;20069;-67
2021/07/01 04:31:23;;;;;;;62.67;25.67;;;14.20;99.90;;;;;;5003474;28;20097;-67
2021/07/01 04:33:49;;;;;;;62.45;25.52;;;14.20;99.90;;;;;;5004193;28;20133;-67
2021/07/01 04:36:15;;;;;;;69.85;27.67;;;14.20;99.90;;;;;;5004512;28;20061;-67
2021/07/01 04:38:42;;;;;;;68.28;25.35;;;14.20;99.90;;;;;;5005172;28;20043;-67
2021/07/01 04:41:07;;;;;;;62.35;25.73;;;14.20;99.90;;;;;;5004226;28;20383;-67
2021/07/01 04:43:33;;;;;;;71.68;26.50;;;14.20;99.90;;;;;;5002954;28;20049;-67
2021/07/01 04:45:59;;;;;;;78.78;26.50;;;14.30;99.90;;;;;;5002682;28;20057;-67
2021/07/01 04:48:25;;;;;;;79.95;28.73;;;14.20;99.90;;;;;;5004544;28;20049;-67
2021/07/01 04:50:51;;;;;;;78.88;27.35;;;14.30;99.90;;;;;;5004039;28;20046;-67
2021/07/01 04:53:16;;;;;;;76.15;30.55;;;14.30;99.90;;;;;;5003841;28;20042;-67
2021/07/01 04:55:42;;;;;;;86.15;26.92;;;14.40;99.90;;;;;;5003918;28;20157;-67
2021/07/01 04:58:08;;;;;;;61.45;26.48;;;14.30;99.90;;;;;;4998305;28;20046;-66
2021/07/01 05:00:35;;;;;;;69.80;27.77;;;14.30;99.90;;;;;;5003155;28;20046;-66
2021/07/01 05:03:02;;;;;;;73.35;26.55;;;14.40;99.90;;;;;;5003658;28;20042;-66
2021/07/01 05:05:27;;;;;;;69.60;28.55;;;14.40;99.90;;;;;;5003928;28;20096;-66
2021/07/01 05:07:53;;;;;;;61.90;25.80;;;14.30;99.90;;;;;;5003788;28;20522;-67
2021/07/01 05:10:19;;;;;;;59.65;26.35;;;14.30;99.90;;;;;;5003713;28;20133;-67
2021/07/01 05:12:45;;;;;;;72.80;26.58;;;14.40;99.90;;;;;;4989862;28;20058;-67
2021/07/01 05:15:11;;;;;;;68.03;28.33;;;14.40;99.90;;;;;;4994805;28;20042;-67
2021/07/01 05:17:38;;;;;;;67.57;27.08;;;14.40;99.90;;;;;;5003494;28;20098;-67
2021/07/01 05:20:07;;;;;;;62.08;26.30;;;14.30;99.90;;;;;;5003388;28;20106;-67
2021/07/01 05:22:33;;;;;;;68.78;27.85;;;14.40;99.90;;;;;;5001927;28;20174;-67
2021/07/01 05:24:59;;;;;;;53.25;24.67;;;14.40;99.90;;;;;;4989775;28;20073;-67
2021/07/01 05:27:25;;;;;;;65.47;26.85;;;14.40;99.90;;;;;;5003252;28;20042;-67
2021/07/01 05:29:51;;;;;;;60.70;25.52;;;14.40;99.90;;;;;;5002242;28;20070;-67
2021/07/01 05:32:18;;;;;;;55.42;25.63;;;14.40;99.90;;;;;;5003004;28;20050;-67
2021/07/01 05:34:44;;;;;;;63.15;25.05;;;14.40;99.90;;;;;;5003401;28;20442;-67
2021/07/01 05:37:11;;;;;;;62.10;25.67;;;14.40;99.90;;;;;;5003642;28;20051;-67
2021/07/01 05:39:37;;;;;;;61.20;25.63;;;14.40;99.90;;;;;;4998601;28;20039;-67
2021/07/01 05:42:04;;;;;;;68.05;25.50;;;14.40;99.90;;;;;;4989010;28;20042;-67
2021/07/01 05:44:29;;;;;;;60.78;26.50;;;14.50;99.90;;;;;;4998925;28;20050;-67
2021/07/01 05:46:55;;;;;;;65.00;25.50;;;14.50;99.90;;;;;;5002516;28;20271;-67
2021/07/01 05:49:21;;;;;;;64.55;27.02;;;14.50;99.90;;;;;;5001965;28;20053;-67
2021/07/01 05:51:48;;;;;;;59.47;26.20;;;14.50;99.90;;;;;;5000684;28;20110;-67
2021/07/01 05:54:27;;;;;;;63.58;26.63;;;14.50;99.90;;;;;;4994023;28;20043;-67
2021/07/01 05:56:53;;;;;;;64.63;28.08;;;14.50;99.90;;;;;;4995534;28;20046;-67
2021/07/01 05:59:20;;;;;;;54.85;25.55;;;14.50;99.90;;;;;;4987856;28;20053;-67
2021/07/01 06:01:47;;;;;;;67.78;26.85;;;14.60;99.90;;;;;;5000532;28;20463;-66
2021/07/01 06:04:13;;;;;;;70.72;28.33;;;14.60;99.90;;;;;;5000187;28;20408;-66
2021/07/01 06:06:44;;;;;;;64.82;29.35;;;14.60;99.90;;;;;;4996313;28;20054;-66
2021/07/01 06:09:12;;;;;;;66.55;27.67;;;14.70;99.90;;;;;;4994610;28;20047;-66
2021/07/01 06:11:38;;;;;;;70.05;27.38;;;14.60;99.90;;;;;;4992874;28;20047;-67
2021/07/01 06:14:07;;;;;;;60.25;27.52;;;14.70;99.90;;;;;;4998895;28;20105;-67
2021/07/01 06:16:36;;;;;;;66.95;27.95;;;14.70;99.90;;;;;;4999534;28;20060;-67
2021/07/01 06:19:04;;;;;;;69.63;31.33;;;14.70;99.90;;;;;;5005498;28;20109;-67
2021/07/01 06:21:30;;;;;;;69.70;29.33;;;14.70;99.90;;;;;;5000037;28;20660;-67
2021/07/01 06:23:57;;;;;;;76.60;30.57;;;14.70;99.90;;;;;;4999621;28;20046;-67
2021/07/01 06:26:28;;;;;;;74.25;30.60;;;14.70;99.90;;;;;;4996681;28;20312;-67
2021/07/01 06:28:55;;;;;;;68.70;28.77;;;14.80;99.90;;;;;;4994328;28;20050;-67
2021/07/01 06:31:21;;;;;;;69.28;28.02;;;14.80;99.90;;;;;;4998322;28;20173;-67
2021/07/01 06:33:47;;;;;;;68.85;29.73;;;14.90;99.90;;;;;;4998868;28;20042;-67
2021/07/01 06:36:16;;;;;;;80.90;31.38;;;15.00;99.90;;;;;;4993826;28;20057;-67
2021/07/01 06:38:46;;;;;;;66.53;28.80;;;15.00;99.90;;;;;;4996462;28;20046;-67
2021/07/01 06:41:14;;;;;;;71.82;28.00;;;15.00;99.90;;;;;;5000189;28;20134;-67
2021/07/01 06:43:44;;;;;;;69.18;29.55;;;15.10;99.90;;;;;;4994077;28;20050;-67
2021/07/01 06:46:13;;;;;;;58.30;26.05;;;15.10;99.90;;;;;;5001163;28;20049;-67
2021/07/01 06:48:39;;;;;;;88.63;30.83;;;15.10;99.90;;;;;;4999007;28;20054;-67
2021/07/01 06:51:07;;;;;;;59.05;26.92;;;15.20;99.90;;;;;;5002012;28;20050;-67
2021/07/01 06:53:38;;;;;;;79.13;29.70;;;15.20;99.90;;;;;;4996139;28;20046;-67
2021/07/01 06:56:04;;;;;;;80.30;29.58;;;15.20;99.90;;;;;;5003043;28;20053;-67
2021/07/01 06:58:32;;;;;;;82.75;31.30;;;15.30;99.90;;;;;;4995160;28;20506;-67
2021/07/01 07:00:58;;;;;;;74.45;29.92;;;15.30;99.90;;;;;;5002136;28;20050;-67
2021/07/01 07:03:24;;;;;;;69.90;29.80;;;15.30;99.90;;;;;;4999416;28;20129;-67
2021/07/01 07:05:52;;;;;;;71.20;30.40;;;15.30;99.90;;;;;;5000667;28;20065;-67
2021/07/01 07:08:19;;;;;;;69.35;28.33;;;15.30;99.90;;;;;;4990858;28;20570;-67
2021/07/01 07:10:45;;;;;;;84.97;30.05;;;15.40;99.90;;;;;;5000421;28;20055;-67
2021/07/01 07:13:12;;;;;;;63.95;28.75;;;15.40;99.90;;;;;;4996563;28;20043;-67
2021/07/01 07:15:39;;;;;;;72.80;28.87;;;15.40;99.90;;;;;;5000028;28;20057;-67
2021/07/01 07:18:30;;;;;;;68.53;28.67;;;15.50;99.90;;;;;;5006293;28;21649;-67
2021/07/01 07:21:03;;;;;;;63.47;28.00;;;15.50;99.90;;;;;;5002543;28;20047;-67
2021/07/01 07:23:34;;;;;;;64.65;29.08;;;15.50;99.90;;;;;;4994235;28;20051;-67
2021/07/01 07:26:07;;;;;;;69.95;29.70;;;15.50;99.90;;;;;;5000360;28;20046;-67
2021/07/01 07:28:36;;;;;;;72.20;29.67;;;15.60;99.90;;;;;;4999801;28;20042;-67
2021/07/01 07:31:04;;;;;;;71.25;28.55;;;15.60;99.90;;;;;;5003310;28;20043;-68
2021/07/01 07:33:30;;;;;;;86.95;31.48;;;15.70;99.90;;;;;;4997649;28;20053;-69
2021/07/01 07:35:56;;;;;;;69.72;28.77;;;15.70;99.90;;;;;;5000510;28;20070;-67
2021/07/01 07:38:26;;;;;;;67.75;28.52;;;15.70;99.90;;;;;;4993644;28;20052;-67
2021/07/01 07:40:53;;;;;;;68.70;29.38;;;15.80;99.90;;;;;;4997630;28;20062;-66
2021/07/01 07:47:01;;;;;;;80.10;30.23;;;15.80;99.90;;;;;;4988068;28;20084;-69
2021/07/01 07:49:27;;;;;;;;;;;15.80;99.90;;;;;;4994471;28;20050;-68
2021/07/01 07:51:53;;;;;;;65.30;28.90;;;15.90;99.90;;;;;;4993649;28;20013;-67
2021/07/01 07:54:25;;;;;;;70.95;30.50;;;15.90;99.90;;;;;;4985403;28;20051;-67
2021/07/01 07:56:54;;;;;;;76.68;32.88;;;15.90;99.90;;;;;;4988855;28;20043;-69
2021/07/01 07:59:32;;;;;;;57.00;29.80;;;16.00;99.90;;;;;;4991724;28;20038;-69
2021/07/01 08:02:00;;;;;;;71.20;28.95;;;16.00;99.90;;;;;;4991889;28;20051;-68
2021/07/01 08:04:27;;;;;;;73.25;31.20;;;16.10;99.90;;;;;;4991785;28;20046;-70
2021/07/01 08:06:54;;;;;;;73.28;31.05;;;16.10;99.90;;;;;;4993058;28;20118;-69
2021/07/01 08:09:26;;;;;;;70.00;28.88;;;16.10;99.90;;;;;;4994987;28;20046;-68
2021/07/01 08:11:54;;;;;;;59.13;27.42;;;16.10;99.90;;;;;;4994464;28;20050;-68
2021/07/01 08:14:24;;;;;;;65.35;28.60;;;16.20;99.90;;;;;;4999311;28;20044;-69
2021/07/01 08:16:51;;;;;;;59.47;27.85;;;16.20;99.90;;;;;;4990252;28;20054;-68
2021/07/01 08:19:17;;;;;;;63.25;29.98;;;16.20;99.90;;;;;;4989004;28;20050;-67
2021/07/01 08:21:46;;;;;;;69.25;29.27;;;16.20;99.90;;;;;;4990749;28;20043;-68
2021/07/01 08:24:12;;;;;;;62.35;29.45;;;16.30;99.90;;;;;;4992431;28;20039;-68
2021/07/01 08:26:37;;;;;;;62.30;28.70;;;16.30;99.90;;;;;;4992521;28;20126;-69
2021/07/01 08:29:03;;;;;;;57.70;27.38;;;16.30;99.90;;;;;;4997964;28;20051;-68
2021/07/01 08:31:31;;;;;;;60.97;28.60;;;16.40;99.90;;;;;;4986603;28;20069;-68
2021/07/01 08:33:58;;;;;;;62.70;26.58;;;16.50;99.90;;;;;;4993283;28;20043;-68
2021/07/01 08:36:25;;;;;;;64.78;29.05;;;16.60;99.90;;;;;;4992657;28;20162;-68
2021/07/01 08:38:56;;;;;;;56.85;28.95;;;16.70;99.90;;;;;;4991774;28;20056;-69
2021/07/01 08:41:23;;;;;;;64.78;28.63;;;16.70;99.90;;;;;;4988600;28;20068;-68
2021/07/01 08:43:59;;;;;;;54.90;26.58;;;16.70;99.90;;;;;;4991681;28;20085;-69
2021/07/01 08:46:36;;;;;;;51.50;27.75;;;16.70;99.90;;;;;;4994463;28;20181;-70
2021/07/01 08:49:07;;;;;;;53.87;25.80;;;16.80;99.90;;;;;;4993302;28;20046;-70
2021/07/01 08:51:35;;;;;;;52.95;26.13;;;16.90;99.90;;;;;;4989107;28;20314;-69
2021/07/01 08:54:10;;;;;;;51.88;26.95;;;16.90;99.90;;;;;;4989842;28;20057;-67
2021/07/01 08:56:38;;;;;;;54.63;27.05;;;16.90;99.90;;;;;;4989547;28;20046;-69
2021/07/01 08:59:10;;;;;;;52.10;27.63;;;16.90;99.90;;;;;;4993840;28;20042;-70
2021/07/01 09:01:41;;;;;;;53.00;24.33;;;16.90;99.90;;;;;;4991943;28;20081;-69
2021/07/01 09:04:11;;;;;;;50.70;27.00;;;16.90;99.90;;;;;;4987058;28;20050;-77
2021/07/01 09:06:37;;;;;;;58.72;27.63;;;17.00;99.90;;;;;;4996165;28;20046;-77
2021/07/01 09:09:06;;;;;;;51.72;26.95;;;17.00;99.90;;;;;;4994475;28;20062;-78
2021/07/01 09:11:36;;;;;;;54.03;27.90;;;17.10;99.90;;;;;;4989473;28;20050;-75
2021/07/01 09:14:06;;;;;;;55.20;26.45;;;17.20;99.90;;;;;;4991688;28;20039;-81
2021/07/01 09:16:33;;;;;;;62.15;27.05;;;17.10;99.90;;;;;;4991441;28;20038;-76
2021/07/01 09:18:59;;;;;;;59.70;26.52;;;17.20;99.90;;;;;;4994400;28;20042;-76
2021/07/01 09:21:26;;;;;;;57.40;26.88;;;17.20;99.90;;;;;;4990490;28;20130;-75
2021/07/01 09:23:52;;;;;;;54.25;27.27;;;17.40;99.90;;;;;;4991098;28;20057;-69
2021/07/01 09:26:21;;;;;;;49.05;24.95;;;17.50;99.90;;;;;;4989759;28;20053;-68
2021/07/01 09:28:51;;;;;;;45.92;24.77;;;17.50;99.90;;;;;;4986757;28;20062;-73
2021/07/01 09:31:20;;;;;;;47.20;24.55;;;17.50;99.90;;;;;;4988088;28;20066;-72
2021/07/01 09:33:48;;;;;;;45.40;24.58;;;17.50;99.90;;;;;;4994038;28;20065;-69
2021/07/01 09:36:15;;;;;;;48.92;25.17;;;17.70;99.90;;;;;;4993478;28;20042;-69
2021/07/01 09:38:43;;;;;;;42.85;24.40;;;17.70;99.90;;;;;;4997009;28;20045;-69
2021/07/01 09:41:11;;;;;;;41.28;23.13;;;17.80;99.90;;;;;;4991108;28;20045;-69
2021/07/01 09:43:42;;;;;;;47.35;24.73;;;17.90;99.90;;;;;;4991858;28;20422;-69
2021/07/01 09:46:13;;;;;;;43.58;23.58;;;17.90;99.90;;;;;;4987820;28;20533;-69
2021/07/01 09:48:46;;;;;;;44.95;26.15;;;18.00;99.90;;;;;;5003391;28;20047;-69
2021/07/01 09:51:13;;;;;;;38.47;23.55;;;;;;;;;;4986876;28;20050;-70
2021/07/01 09:53:40;;;;;;;46.08;24.10;;;;;;;;;;4988060;28;20046;-69
2021/07/01 09:56:10;;;;;;;40.17;22.57;;;;;;;;;;4991636;28;20051;-69
2021/07/01 09:58:43;;;;;;;38.08;22.90;;;;;;;;;;4994492;28;20356;-68
2021/07/01 10:01:22;;;;;;;37.88;22.25;;;;;;;;;;4997075;28;20046;-69
2021/07/01 10:03:52;;;;;;;36.45;21.90;;;;;;;;;;4985896;28;20058;-68
2021/07/01 10:06:19;;;;;;;38.42;20.85;;;;;;;;;;4994257;28;20050;-68
2021/07/01 10:08:45;;;;;;;41.27;22.63;;;;;;;;;;4989160;28;20043;-69
2021/07/01 10:11:11;;;;;;;35.08;21.52;;;;;;;;;;4987402;28;20329;-69
2021/07/01 10:13:37;;;;;;;34.65;21.58;;;;;;;;;;4985156;28;20570;-69
2021/07/01 10:16:04;;;;;;;31.73;20.90;;;;;;;;;;4999618;28;20055;-70
2021/07/01 10:18:40;;;;;;;35.08;20.67;;;;;;;;;;4989454;28;20093;-69
2021/07/01 10:21:13;;;;;;;33.47;20.70;;;;;;;;;;4998188;28;20050;-70
2021/07/01 10:23:39;;;;;;;31.63;19.60;;;;;;;;;;4997498;28;20054;-69
2021/07/01 10:26:13;;;;;;;25.33;16.70;;;;;;;;;;4990279;28;20094;-70
2021/07/01 10:28:40;;;;;;;29.38;17.60;;;;;;;;;;4996039;28;20054;-71
2021/07/01 10:31:08;;;;;;;30.40;20.05;;;;;;;;;;4996092;28;20096;-71
2021/07/01 10:33:35;;;;;;;30.70;20.38;;;;;;;;;;4991544;28;20094;-71
2021/07/01 10:36:03;;;;;;;;;;;;;;;;;;4994606;28;20043;-71
2021/07/01 10:38:48;;;;;;;35.67;17.90;;;;;;;;;;4990994;28;19945;-71
2021/07/01 10:41:35;;;;;;;31.27;19.20;;;;;;;;;;4988383;28;20046;-71
2021/07/01 10:44:02;;;;;;;25.70;17.80;;;;;;;;;;4989714;28;20054;-73
2021/07/01 10:46:42;;;;;;;31.15;18.30;;;;;;;;;;4987615;28;20078;-72
2021/07/01 10:49:09;;;;;;;30.60;20.00;;;;;;;;;;4997198;28;20093;-72
2021/07/01 10:51:35;;;;;;;30.17;19.10;;;;;;;;;;4991415;28;20039;-72
2021/07/01 10:54:12;;;;;;;31.88;17.65;;;;;;;;;;4988208;28;20046;-80
2021/07/01 10:56:42;;;;;;;23.55;17.80;;;;;;;;;;4996149;28;20046;-72
2021/07/01 10:59:12;;;;;;;29.50;18.50;;;;;;;;;;5001117;28;20046;-72
2021/07/01 11:01:41;;;;;;;27.85;17.98;;;;;;;;;;4996351;28;20057;-71
2021/07/01 11:04:11;;;;;;;28.00;18.30;;;;;;;;;;4990496;28;20062;-73
2021/07/01 11:06:39;;;;;;;30.63;19.35;;;;;;;;;;4994253;28;20046;-73
2021/07/01 11:09:07;;;;;;;32.05;20.73;;;;;;;;;;4997282;28;20061;-73
2021/07/01 11:11:34;;;;;;;34.53;21.92;;;;;;;;;;4995702;28;20596;-73
2021/07/01 11:14:06;;;;;;;27.45;20.17;;;;;;;;;;5001163;28;20046;-72
2021/07/01 11:16:50;;;;;;;29.85;19.88;;;;;;;;;;4998216;28;20201;-72
2021/07/01 11:19:17;;;;;;;35.58;19.83;;;;;;;;;;4996106;28;20047;-73
2021/07/01 11:21:44;;;;;;;;;;;;;;;;;;4991985;28;20051;-72
2021/07/01 11:24:12;;;;;;;32.03;19.23;;;;;;;;;;4995095;28;20081;-72
2021/07/01 11:26:39;;;;;;;30.33;20.80;;;;;;;;;;4990130;28;20045;-72
2021/07/01 11:29:08;;;;;;;37.03;20.20;;;;;;;;;;4995436;28;20050;-73
2021/07/01 11:31:40;;;;;;;28.35;19.42;;;;;;;;;;4990004;28;20043;-72
2021/07/01 11:34:07;;;;;;;30.83;19.77;;;;;;;;;;4991943;28;20098;-72
2021/07/01 11:36:34;;;;;;;26.90;19.38;;;;;;;;;;4993183;28;20101;-72
2021/07/01 11:39:07;;;;;;;26.07;17.43;;;;;;;;;;4991448;28;20070;-72
2021/07/01 11:41:35;;;;;;;31.58;20.48;;;;;;;;;;4991863;28;20328;-73
2021/07/01 11:44:01;;;;;;;27.88;18.08;;;;;;;;;;4991986;28;20038;-72
2021/07/01 11:46:27;;;;;;;25.48;18.52;;;;;;;;;;4991898;28;20050;-72
2021/07/01 11:48:55;;;;;;;28.48;17.75;;;;;;;;;;4992417;28;20056;-72
2021/07/01 11:51:21;;;;;;;;;;;;;;;;;;4990272;28;20045;-72
2021/07/01 11:53:51;;;;;;;26.13;17.42;;;;;;;;;;4991032;28;19925;-72
2021/07/01 11:56:18;;;;;;;27.85;16.88;;;;;;;;;;4993033;28;20513;-72
2021/07/01 11:58:44;;;;;;;21.33;16.52;;;;;;;;;;4996324;28;20046;-72
2021/07/01 12:01:10;;;;;;;25.88;16.27;;;;;;;;;;4988958;28;20046;-73
2021/07/01 12:03:37;;;;;;;29.00;17.08;;;;;;;;;;4997563;28;20034;-72
2021/07/01 12:06:04;;;;;;;25.50;15.60;;;;;;;;;;4988434;28;20477;-72
2021/07/01 12:08:30;;;;;;;22.75;16.20;;;;;;;;;;4992648;28;20070;-72
2021/07/01 12:11:00;;;;;;;25.38;16.20;;;;;;;;;;4996216;28;20059;-72
2021/07/01 12:13:32;;;;;;;23.25;15.88;;;;;;;;;;4985697;28;20059;-72
2021/07/01 12:16:02;;;;;;;21.50;16.33;;;;;;;;;;4995593;28;20718;-72
2021/07/01 12:18:47;;;;;;;21.48;14.38;;;;;;;;;;4988135;28;20061;-72
2021/07/01 12:21:14;;;;;;;20.63;12.68;;;;;;;;;;4992851;28;20043;-72
2021/07/01 12:23:47;;;;;;;17.55;13.20;;;;;;;;;;4997054;28;20053;-71
2021/07/01 12:26:32;;;;;;;18.38;12.40;;;;;;;;;;4989243;28;20043;-73
2021/07/01 12:28:58;;;;;;;17.90;12.85;;;;;;;;;;4997748;28;20169;-71
2021/07/01 12:31:25;;;;;;;17.95;12.43;;;;;;;;;;4991427;28;20061;-72
2021/07/01 12:33:59;;;;;;;16.90;12.27;;;;;;;;;;4988164;28;20073;-72
2021/07/01 12:36:29;;;;;;;21.00;12.82;;;;;;;;;;4988752;28;20050;-72
2021/07/01 12:41:35;;;;;;;16.95;12.95;;;;;;;;;;4988300;28;20101;-72
2021/07/01 12:44:05;;;;;;;23.98;13.65;;;;;;;;;;4994153;28;20473;-73
2021/07/01 12:46:46;;;;;;;20.58;13.77;;;;;;;;;;4989099;28;20085;-72
2021/07/01 12:49:18;;;;;;;19.00;13.07;;;;;;;;;;4990703;28;20043;-72
2021/07/01 12:51:45;;;;;;;20.08;12.88;;;;;;;;;;4992161;28;20098;-71
2021/07/01 12:54:15;;;;;;;20.52;13.02;;;;;;;;;;4993675;28;20042;-72
2021/07/01 12:56:41;;;;;;;14.10;10.90;;;;;;;;;;4993384;28;20088;-72
2021/07/01 12:59:07;;;;;;;13.88;10.20;;;;;;;;;;4997246;28;21504;-72
2021/07/01 13:01:34;;;;;;;16.93;10.50;;;;;;;;;;4990217;28;20050;-72